sensor_id;sensor_type;location;lat;lon;timestamp;P1;durP1;ratioP1;P2;durP2;ratioP2
10667;SDS011;5382;42.136;24.796;2022-09-25T00:00:53;5.10;;;3.58;;
10667;SDS011;5382;42.136;24.796;2022-09-25T00:03:21;8.70;;;3.97;;
10667;SDS011;5382;42.136;24.796;2022-09-25T00:05:49;6.32;;;4.60;;
10667;SDS011;5382;42.136;24.796;2022-09-25T00:08:18;7.82;;;3.80;;
10667;SDS011;5382;42.136;24.796;2022-09-25T00:10:48;3.92;;;3.08;;
10667;SDS011;5382;42.136;24.796;2022-09-25T00:13:16;7.90;;;3.58;;
10667;SDS011;5382;42.136;24.796;2022-09-25T00:15:45;4.63;;;3.42;;
10667;SDS011;5382;42.136;24.796;2022-09-25T00:18:13;5.25;;;4.07;;
10667;SDS011;5382;42.136;24.796;2022-09-25T00:20:40;5.82;;;4.28;;
10667;SDS011;5382;42.136;24.796;2022-09-25T00:23:06;10.60;;;4.00;;
10667;SDS011;5382;42.136;24.796;2022-09-25T00:25:34;4.25;;;3.63;;
10667;SDS011;5382;42.136;24.796;2022-09-25T00:28:01;6.43;;;3.53;;
10667;SDS011;5382;42.136;24.796;2022-09-25T00:30:28;5.82;;;3.63;;
10667;SDS011;5382;42.136;24.796;2022-09-25T00:32:55;6.05;;;3.47;;
10667;SDS011;5382;42.136;24.796;2022-09-25T00:35:24;5.47;;;3.42;;
10667;SDS011;5382;42.136;24.796;2022-09-25T00:37:51;4.93;;;3.38;;
10667;SDS011;5382;42.136;24.796;2022-09-25T00:40:18;5.25;;;3.72;;
10667;SDS011;5382;42.136;24.796;2022-09-25T00:42:46;4.57;;;3.72;;
10667;SDS011;5382;42.136;24.796;2022-09-25T00:45:14;5.28;;;4.05;;
10667;SDS011;5382;42.136;24.796;2022-09-25T00:47:45;9.73;;;4.55;;
10667;SDS011;5382;42.136;24.796;2022-09-25T00:50:27;5.25;;;3.60;;
10667;SDS011;5382;42.136;24.796;2022-09-25T00:52:58;6.15;;;3.95;;
10667;SDS011;5382;42.136;24.796;2022-09-25T00:55:30;5.70;;;4.05;;
10667;SDS011;5382;42.136;24.796;2022-09-25T00:58:00;6.55;;;4.82;;
10667;SDS011;5382;42.136;24.796;2022-09-25T01:00:29;5.43;;;3.97;;
10667;SDS011;5382;42.136;24.796;2022-09-25T01:02:57;8.65;;;4.20;;
10667;SDS011;5382;42.136;24.796;2022-09-25T01:05:25;6.05;;;4.00;;
10667;SDS011;5382;42.136;24.796;2022-09-25T01:07:57;8.13;;;4.00;;
10667;SDS011;5382;42.136;24.796;2022-09-25T01:10:27;5.45;;;3.90;;
10667;SDS011;5382;42.136;24.796;2022-09-25T01:12:54;6.63;;;4.18;;
10667;SDS011;5382;42.136;24.796;2022-09-25T01:15:28;5.43;;;4.47;;
10667;SDS011;5382;42.136;24.796;2022-09-25T01:18:01;6.32;;;4.18;;
10667;SDS011;5382;42.136;24.796;2022-09-25T01:20:39;6.05;;;4.20;;
10667;SDS011;5382;42.136;24.796;2022-09-25T01:23:24;5.63;;;4.40;;
10667;SDS011;5382;42.136;24.796;2022-09-25T01:26:09;9.32;;;5.00;;
10667;SDS011;5382;42.136;24.796;2022-09-25T01:28:58;8.85;;;4.50;;
10667;SDS011;5382;42.136;24.796;2022-09-25T01:31:33;7.43;;;3.70;;
10667;SDS011;5382;42.136;24.796;2022-09-25T01:34:08;5.93;;;4.20;;
10667;SDS011;5382;42.136;24.796;2022-09-25T01:36:40;5.68;;;4.05;;
10667;SDS011;5382;42.136;24.796;2022-09-25T01:39:15;7.10;;;4.10;;
10667;SDS011;5382;42.136;24.796;2022-09-25T01:41:46;5.95;;;4.13;;
10667;SDS011;5382;42.136;24.796;2022-09-25T01:44:19;7.10;;;4.60;;
10667;SDS011;5382;42.136;24.796;2022-09-25T01:46:53;6.00;;;4.45;;
10667;SDS011;5382;42.136;24.796;2022-09-25T01:49:25;7.95;;;4.78;;
10667;SDS011;5382;42.136;24.796;2022-09-25T01:51:55;7.93;;;4.35;;
10667;SDS011;5382;42.136;24.796;2022-09-25T01:54:27;8.85;;;5.00;;
10667;SDS011;5382;42.136;24.796;2022-09-25T01:57:01;6.40;;;4.60;;
10667;SDS011;5382;42.136;24.796;2022-09-25T01:59:36;8.88;;;4.60;;
10667;SDS011;5382;42.136;24.796;2022-09-25T02:02:09;10.65;;;4.22;;
10667;SDS011;5382;42.136;24.796;2022-09-25T02:04:39;9.50;;;4.95;;
10667;SDS011;5382;42.136;24.796;2022-09-25T02:07:10;8.52;;;4.60;;
10667;SDS011;5382;42.136;24.796;2022-09-25T02:09:42;6.05;;;4.60;;
10667;SDS011;5382;42.136;24.796;2022-09-25T02:12:13;6.15;;;4.35;;
10667;SDS011;5382;42.136;24.796;2022-09-25T02:14:47;8.25;;;4.50;;
10667;SDS011;5382;42.136;24.796;2022-09-25T02:17:20;7.03;;;4.18;;
10667;SDS011;5382;42.136;24.796;2022-09-25T02:20:11;9.80;;;4.80;;
10667;SDS011;5382;42.136;24.796;2022-09-25T02:22:57;8.95;;;4.57;;
10667;SDS011;5382;42.136;24.796;2022-09-25T02:25:38;5.50;;;4.22;;
10667;SDS011;5382;42.136;24.796;2022-09-25T02:28:08;9.43;;;4.60;;
10667;SDS011;5382;42.136;24.796;2022-09-25T02:30:37;12.13;;;4.88;;
10667;SDS011;5382;42.136;24.796;2022-09-25T02:33:04;9.30;;;4.38;;
10667;SDS011;5382;42.136;24.796;2022-09-25T02:35:31;7.45;;;4.50;;
10667;SDS011;5382;42.136;24.796;2022-09-25T02:37:58;5.97;;;4.03;;
10667;SDS011;5382;42.136;24.796;2022-09-25T02:40:25;6.90;;;4.43;;
10667;SDS011;5382;42.136;24.796;2022-09-25T02:43:04;7.40;;;4.80;;
10667;SDS011;5382;42.136;24.796;2022-09-25T02:45:40;6.38;;;4.60;;
10667;SDS011;5382;42.136;24.796;2022-09-25T02:48:16;12.23;;;4.88;;
10667;SDS011;5382;42.136;24.796;2022-09-25T02:50:55;6.32;;;4.45;;
10667;SDS011;5382;42.136;24.796;2022-09-25T02:53:31;4.45;;;4.03;;
10667;SDS011;5382;42.136;24.796;2022-09-25T02:56:03;6.75;;;4.38;;
10667;SDS011;5382;42.136;24.796;2022-09-25T02:58:36;9.60;;;4.35;;
10667;SDS011;5382;42.136;24.796;2022-09-25T03:01:09;5.00;;;4.05;;
10667;SDS011;5382;42.136;24.796;2022-09-25T03:03:38;5.95;;;3.72;;
10667;SDS011;5382;42.136;24.796;2022-09-25T03:06:07;6.97;;;3.95;;
10667;SDS011;5382;42.136;24.796;2022-09-25T03:08:36;4.40;;;3.60;;
10667;SDS011;5382;42.136;24.796;2022-09-25T03:11:07;8.18;;;3.97;;
10667;SDS011;5382;42.136;24.796;2022-09-25T03:13:36;4.53;;;3.95;;
10667;SDS011;5382;42.136;24.796;2022-09-25T03:16:05;5.32;;;3.75;;
10667;SDS011;5382;42.136;24.796;2022-09-25T03:18:37;5.07;;;3.85;;
10667;SDS011;5382;42.136;24.796;2022-09-25T03:21:04;6.10;;;4.07;;
10667;SDS011;5382;42.136;24.796;2022-09-25T03:23:31;5.93;;;4.43;;
10667;SDS011;5382;42.136;24.796;2022-09-25T03:25:58;5.43;;;3.90;;
10667;SDS011;5382;42.136;24.796;2022-09-25T03:28:25;5.53;;;3.90;;
10667;SDS011;5382;42.136;24.796;2022-09-25T03:30:55;13.65;;;4.07;;
10667;SDS011;5382;42.136;24.796;2022-09-25T03:33:28;5.32;;;3.80;;
10667;SDS011;5382;42.136;24.796;2022-09-25T03:36:06;4.10;;;3.70;;
10667;SDS011;5382;42.136;24.796;2022-09-25T03:38:36;5.43;;;4.10;;
10667;SDS011;5382;42.136;24.796;2022-09-25T03:41:04;4.75;;;4.20;;
10667;SDS011;5382;42.136;24.796;2022-09-25T03:43:33;7.07;;;4.32;;
10667;SDS011;5382;42.136;24.796;2022-09-25T03:46:01;7.32;;;4.43;;
10667;SDS011;5382;42.136;24.796;2022-09-25T03:48:30;7.45;;;4.70;;
10667;SDS011;5382;42.136;24.796;2022-09-25T03:50:56;5.97;;;4.03;;
10667;SDS011;5382;42.136;24.796;2022-09-25T03:53:24;8.30;;;4.88;;
10667;SDS011;5382;42.136;24.796;2022-09-25T03:55:51;7.15;;;4.80;;
10667;SDS011;5382;42.136;24.796;2022-09-25T03:58:19;6.38;;;4.72;;
10667;SDS011;5382;42.136;24.796;2022-09-25T04:00:47;4.90;;;4.07;;
10667;SDS011;5382;42.136;24.796;2022-09-25T04:03:14;5.30;;;4.03;;
10667;SDS011;5382;42.136;24.796;2022-09-25T04:05:43;6.45;;;4.15;;
10667;SDS011;5382;42.136;24.796;2022-09-25T04:08:10;9.27;;;5.05;;
10667;SDS011;5382;42.136;24.796;2022-09-25T04:10:37;6.10;;;4.47;;
10667;SDS011;5382;42.136;24.796;2022-09-25T04:13:04;6.40;;;4.78;;
10667;SDS011;5382;42.136;24.796;2022-09-25T04:15:33;8.55;;;4.95;;
10667;SDS011;5382;42.136;24.796;2022-09-25T04:18:00;6.47;;;4.95;;
10667;SDS011;5382;42.136;24.796;2022-09-25T04:20:27;6.15;;;4.43;;
10667;SDS011;5382;42.136;24.796;2022-09-25T04:22:55;7.70;;;4.40;;
10667;SDS011;5382;42.136;24.796;2022-09-25T04:25:22;13.07;;;4.63;;
10667;SDS011;5382;42.136;24.796;2022-09-25T04:27:50;6.85;;;4.20;;
10667;SDS011;5382;42.136;24.796;2022-09-25T04:30:18;5.35;;;4.25;;
10667;SDS011;5382;42.136;24.796;2022-09-25T04:32:45;6.13;;;4.10;;
10667;SDS011;5382;42.136;24.796;2022-09-25T04:35:30;4.65;;;4.13;;
10667;SDS011;5382;42.136;24.796;2022-09-25T04:37:58;10.35;;;4.22;;
10667;SDS011;5382;42.136;24.796;2022-09-25T04:40:25;5.50;;;4.22;;
10667;SDS011;5382;42.136;24.796;2022-09-25T04:42:54;16.10;;;5.20;;
10667;SDS011;5382;42.136;24.796;2022-09-25T04:45:22;8.10;;;4.65;;
10667;SDS011;5382;42.136;24.796;2022-09-25T04:47:50;6.10;;;4.20;;
10667;SDS011;5382;42.136;24.796;2022-09-25T04:50:17;11.93;;;4.78;;
10667;SDS011;5382;42.136;24.796;2022-09-25T04:52:46;10.20;;;5.22;;
10667;SDS011;5382;42.136;24.796;2022-09-25T04:55:15;7.90;;;3.80;;
10667;SDS011;5382;42.136;24.796;2022-09-25T04:57:42;8.52;;;4.60;;
10667;SDS011;5382;42.136;24.796;2022-09-25T05:00:09;6.10;;;4.35;;
10667;SDS011;5382;42.136;24.796;2022-09-25T05:02:43;8.40;;;4.95;;
10667;SDS011;5382;42.136;24.796;2022-09-25T05:05:10;17.90;;;4.75;;
10667;SDS011;5382;42.136;24.796;2022-09-25T05:07:36;7.72;;;4.95;;
10667;SDS011;5382;42.136;24.796;2022-09-25T05:10:04;5.57;;;4.85;;
10667;SDS011;5382;42.136;24.796;2022-09-25T05:12:34;6.50;;;4.95;;
10667;SDS011;5382;42.136;24.796;2022-09-25T05:15:02;8.55;;;5.25;;
10667;SDS011;5382;42.136;24.796;2022-09-25T05:17:29;11.75;;;6.45;;
10667;SDS011;5382;42.136;24.796;2022-09-25T05:19:55;6.63;;;5.32;;
10667;SDS011;5382;42.136;24.796;2022-09-25T05:22:23;8.23;;;5.57;;
10667;SDS011;5382;42.136;24.796;2022-09-25T05:24:49;6.45;;;5.20;;
10667;SDS011;5382;42.136;24.796;2022-09-25T05:27:17;11.70;;;5.82;;
10667;SDS011;5382;42.136;24.796;2022-09-25T05:29:46;7.57;;;4.97;;
10667;SDS011;5382;42.136;24.796;2022-09-25T05:32:14;7.22;;;4.97;;
10667;SDS011;5382;42.136;24.796;2022-09-25T05:34:41;7.40;;;4.68;;
10667;SDS011;5382;42.136;24.796;2022-09-25T05:37:08;5.82;;;4.63;;
10667;SDS011;5382;42.136;24.796;2022-09-25T05:39:34;7.40;;;4.75;;
10667;SDS011;5382;42.136;24.796;2022-09-25T05:42:01;11.35;;;5.10;;
10667;SDS011;5382;42.136;24.796;2022-09-25T05:44:28;5.68;;;4.45;;
10667;SDS011;5382;42.136;24.796;2022-09-25T05:46:59;5.90;;;4.45;;
10667;SDS011;5382;42.136;24.796;2022-09-25T05:49:28;5.35;;;4.28;;
10667;SDS011;5382;42.136;24.796;2022-09-25T05:51:54;5.63;;;4.05;;
10667;SDS011;5382;42.136;24.796;2022-09-25T05:54:21;7.22;;;4.00;;
10667;SDS011;5382;42.136;24.796;2022-09-25T05:56:48;4.45;;;4.00;;
10667;SDS011;5382;42.136;24.796;2022-09-25T05:59:15;5.80;;;3.83;;
10667;SDS011;5382;42.136;24.796;2022-09-25T06:01:42;5.38;;;3.90;;
10667;SDS011;5382;42.136;24.796;2022-09-25T06:04:11;5.55;;;3.95;;
10667;SDS011;5382;42.136;24.796;2022-09-25T06:06:38;7.18;;;5.68;;
10667;SDS011;5382;42.136;24.796;2022-09-25T06:09:05;4.30;;;3.38;;
10667;SDS011;5382;42.136;24.796;2022-09-25T06:11:32;5.03;;;3.20;;
10667;SDS011;5382;42.136;24.796;2022-09-25T06:13:59;6.72;;;3.40;;
10667;SDS011;5382;42.136;24.796;2022-09-25T06:16:26;5.07;;;3.40;;
10667;SDS011;5382;42.136;24.796;2022-09-25T06:18:53;4.43;;;3.22;;
10667;SDS011;5382;42.136;24.796;2022-09-25T06:21:21;6.07;;;3.17;;
10667;SDS011;5382;42.136;24.796;2022-09-25T06:23:48;4.30;;;3.22;;
10667;SDS011;5382;42.136;24.796;2022-09-25T06:26:15;3.35;;;2.50;;
10667;SDS011;5382;42.136;24.796;2022-09-25T06:28:41;2.20;;;2.00;;
10667;SDS011;5382;42.136;24.796;2022-09-25T06:31:08;4.53;;;2.30;;
10667;SDS011;5382;42.136;24.796;2022-09-25T06:33:35;4.07;;;3.00;;
10667;SDS011;5382;42.136;24.796;2022-09-25T06:36:03;3.05;;;2.75;;
10667;SDS011;5382;42.136;24.796;2022-09-25T06:38:32;4.20;;;2.28;;
10667;SDS011;5382;42.136;24.796;2022-09-25T06:40:58;4.20;;;3.30;;
10667;SDS011;5382;42.136;24.796;2022-09-25T06:43:25;4.65;;;2.70;;
10667;SDS011;5382;42.136;24.796;2022-09-25T06:45:53;3.75;;;3.40;;
10667;SDS011;5382;42.136;24.796;2022-09-25T06:48:20;4.03;;;3.08;;
10667;SDS011;5382;42.136;24.796;2022-09-25T06:50:47;5.70;;;2.75;;
10667;SDS011;5382;42.136;24.796;2022-09-25T06:53:17;4.55;;;3.17;;
10667;SDS011;5382;42.136;24.796;2022-09-25T06:55:47;3.88;;;3.10;;
10667;SDS011;5382;42.136;24.796;2022-09-25T06:58:14;3.20;;;2.85;;
10667;SDS011;5382;42.136;24.796;2022-09-25T07:00:44;5.90;;;2.97;;
10667;SDS011;5382;42.136;24.796;2022-09-25T07:03:12;5.22;;;3.83;;
10667;SDS011;5382;42.136;24.796;2022-09-25T07:05:58;7.63;;;3.28;;
10667;SDS011;5382;42.136;24.796;2022-09-25T07:08:25;3.30;;;2.95;;
10667;SDS011;5382;42.136;24.796;2022-09-25T07:10:54;3.85;;;3.50;;
10667;SDS011;5382;42.136;24.796;2022-09-25T07:13:23;4.38;;;2.65;;
10667;SDS011;5382;42.136;24.796;2022-09-25T07:15:50;4.97;;;3.80;;
10667;SDS011;5382;42.136;24.796;2022-09-25T07:18:17;4.82;;;3.72;;
10667;SDS011;5382;42.136;24.796;2022-09-25T07:20:44;4.18;;;3.58;;
10667;SDS011;5382;42.136;24.796;2022-09-25T07:23:11;4.75;;;3.13;;
10667;SDS011;5382;42.136;24.796;2022-09-25T07:25:38;3.97;;;3.30;;
10667;SDS011;5382;42.136;24.796;2022-09-25T07:28:07;4.70;;;4.13;;
10667;SDS011;5382;42.136;24.796;2022-09-25T07:30:33;4.43;;;3.47;;
10667;SDS011;5382;42.136;24.796;2022-09-25T07:33:00;7.90;;;4.47;;
10667;SDS011;5382;42.136;24.796;2022-09-25T07:35:27;5.93;;;4.30;;
10667;SDS011;5382;42.136;24.796;2022-09-25T07:37:54;7.00;;;4.45;;
10667;SDS011;5382;42.136;24.796;2022-09-25T07:40:21;7.72;;;4.47;;
10667;SDS011;5382;42.136;24.796;2022-09-25T07:42:50;6.25;;;4.50;;
10667;SDS011;5382;42.136;24.796;2022-09-25T07:45:18;6.85;;;5.00;;
10667;SDS011;5382;42.136;24.796;2022-09-25T07:47:45;10.00;;;5.18;;
10667;SDS011;5382;42.136;24.796;2022-09-25T07:50:12;6.18;;;4.03;;
10667;SDS011;5382;42.136;24.796;2022-09-25T07:52:39;4.22;;;3.83;;
10667;SDS011;5382;42.136;24.796;2022-09-25T07:55:06;7.50;;;4.60;;
10667;SDS011;5382;42.136;24.796;2022-09-25T07:57:33;5.78;;;4.07;;
10667;SDS011;5382;42.136;24.796;2022-09-25T08:00:00;6.32;;;3.53;;
10667;SDS011;5382;42.136;24.796;2022-09-25T08:02:30;5.38;;;3.60;;
10667;SDS011;5382;42.136;24.796;2022-09-25T08:04:59;5.18;;;4.25;;
10667;SDS011;5382;42.136;24.796;2022-09-25T08:07:27;6.15;;;4.55;;
10667;SDS011;5382;42.136;24.796;2022-09-25T08:09:54;7.28;;;4.75;;
10667;SDS011;5382;42.136;24.796;2022-09-25T08:12:21;7.35;;;4.80;;
10667;SDS011;5382;42.136;24.796;2022-09-25T08:14:49;5.28;;;4.30;;
10667;SDS011;5382;42.136;24.796;2022-09-25T08:17:16;7.40;;;4.65;;
10667;SDS011;5382;42.136;24.796;2022-09-25T08:19:44;8.93;;;4.40;;
10667;SDS011;5382;42.136;24.796;2022-09-25T08:22:11;4.20;;;3.80;;
10667;SDS011;5382;42.136;24.796;2022-09-25T08:24:38;6.85;;;3.90;;
10667;SDS011;5382;42.136;24.796;2022-09-25T08:27:05;7.18;;;3.40;;
10667;SDS011;5382;42.136;24.796;2022-09-25T08:29:32;9.18;;;3.97;;
10667;SDS011;5382;42.136;24.796;2022-09-25T08:31:59;4.78;;;3.20;;
10667;SDS011;5382;42.136;24.796;2022-09-25T08:34:26;4.50;;;3.17;;
10667;SDS011;5382;42.136;24.796;2022-09-25T08:36:54;3.00;;;2.70;;
10667;SDS011;5382;42.136;24.796;2022-09-25T08:39:22;8.07;;;3.13;;
10667;SDS011;5382;42.136;24.796;2022-09-25T08:41:49;4.25;;;2.85;;
10667;SDS011;5382;42.136;24.796;2022-09-25T08:44:21;9.50;;;3.22;;
10667;SDS011;5382;42.136;24.796;2022-09-25T08:46:51;3.78;;;2.60;;
10667;SDS011;5382;42.136;24.796;2022-09-25T08:49:40;3.03;;;2.28;;
10667;SDS011;5382;42.136;24.796;2022-09-25T08:52:16;4.93;;;2.80;;
10667;SDS011;5382;42.136;24.796;2022-09-25T08:54:45;5.20;;;2.60;;
10667;SDS011;5382;42.136;24.796;2022-09-25T08:57:17;4.03;;;2.65;;
10667;SDS011;5382;42.136;24.796;2022-09-25T08:59:53;6.90;;;3.17;;
10667;SDS011;5382;42.136;24.796;2022-09-25T09:02:25;4.65;;;3.05;;
10667;SDS011;5382;42.136;24.796;2022-09-25T09:05:02;4.80;;;3.20;;
10667;SDS011;5382;42.136;24.796;2022-09-25T09:07:35;4.32;;;2.75;;
10667;SDS011;5382;42.136;24.796;2022-09-25T09:10:06;5.03;;;2.85;;
10667;SDS011;5382;42.136;24.796;2022-09-25T09:12:42;5.18;;;2.90;;
10667;SDS011;5382;42.136;24.796;2022-09-25T09:15:24;3.33;;;2.40;;
10667;SDS011;5382;42.136;24.796;2022-09-25T09:17:55;3.30;;;2.53;;
10667;SDS011;5382;42.136;24.796;2022-09-25T09:20:27;2.85;;;2.58;;
10667;SDS011;5382;42.136;24.796;2022-09-25T09:23:04;3.40;;;2.60;;
10667;SDS011;5382;42.136;24.796;2022-09-25T09:25:33;4.10;;;2.85;;
10667;SDS011;5382;42.136;24.796;2022-09-25T09:28:14;2.80;;;2.55;;
10667;SDS011;5382;42.136;24.796;2022-09-25T09:30:55;3.20;;;2.42;;
10667;SDS011;5382;42.136;24.796;2022-09-25T09:33:35;2.75;;;2.55;;
10667;SDS011;5382;42.136;24.796;2022-09-25T09:36:12;4.72;;;3.05;;
10667;SDS011;5382;42.136;24.796;2022-09-25T09:38:49;3.85;;;2.72;;
10667;SDS011;5382;42.136;24.796;2022-09-25T09:41:37;4.22;;;2.50;;
10667;SDS011;5382;42.136;24.796;2022-09-25T09:44:20;2.42;;;2.22;;
10667;SDS011;5382;42.136;24.796;2022-09-25T09:47:00;5.18;;;2.67;;
10667;SDS011;5382;42.136;24.796;2022-09-25T09:49:38;3.03;;;2.75;;
10667;SDS011;5382;42.136;24.796;2022-09-25T09:52:10;3.00;;;2.47;;
10667;SDS011;5382;42.136;24.796;2022-09-25T09:54:43;3.17;;;2.30;;
10667;SDS011;5382;42.136;24.796;2022-09-25T09:57:16;10.27;;;2.53;;
10667;SDS011;5382;42.136;24.796;2022-09-25T09:59:48;2.88;;;2.65;;
10667;SDS011;5382;42.136;24.796;2022-09-25T10:05:06;3.45;;;2.60;;
10667;SDS011;5382;42.136;24.796;2022-09-25T10:07:37;4.60;;;2.47;;
10667;SDS011;5382;42.136;24.796;2022-09-25T10:10:10;3.25;;;2.85;;
10667;SDS011;5382;42.136;24.796;2022-09-25T10:12:40;2.58;;;2.35;;
10667;SDS011;5382;42.136;24.796;2022-09-25T10:15:12;4.63;;;2.63;;
10667;SDS011;5382;42.136;24.796;2022-09-25T10:17:43;4.53;;;2.20;;
10667;SDS011;5382;42.136;24.796;2022-09-25T10:20:13;3.70;;;2.50;;
10667;SDS011;5382;42.136;24.796;2022-09-25T10:22:43;2.95;;;2.40;;
10667;SDS011;5382;42.136;24.796;2022-09-25T10:25:12;4.10;;;3.10;;
10667;SDS011;5382;42.136;24.796;2022-09-25T10:27:58;3.17;;;2.13;;
10667;SDS011;5382;42.136;24.796;2022-09-25T10:30:25;4.85;;;2.65;;
10667;SDS011;5382;42.136;24.796;2022-09-25T10:32:56;2.40;;;2.20;;
10667;SDS011;5382;42.136;24.796;2022-09-25T10:35:27;5.22;;;2.42;;
10667;SDS011;5382;42.136;24.796;2022-09-25T10:38:06;3.03;;;2.40;;
10667;SDS011;5382;42.136;24.796;2022-09-25T10:40:54;2.28;;;2.08;;
10667;SDS011;5382;42.136;24.796;2022-09-25T10:43:24;2.58;;;2.35;;
10667;SDS011;5382;42.136;24.796;2022-09-25T10:45:51;3.28;;;2.20;;
10667;SDS011;5382;42.136;24.796;2022-09-25T10:48:32;3.42;;;2.30;;
10667;SDS011;5382;42.136;24.796;2022-09-25T10:51:32;3.25;;;2.40;;
10667;SDS011;5382;42.136;24.796;2022-09-25T10:54:09;3.53;;;2.38;;
10667;SDS011;5382;42.136;24.796;2022-09-25T10:56:39;2.58;;;2.30;;
10667;SDS011;5382;42.136;24.796;2022-09-25T10:59:08;3.00;;;2.00;;
10667;SDS011;5382;42.136;24.796;2022-09-25T11:01:40;2.78;;;1.92;;
10667;SDS011;5382;42.136;24.796;2022-09-25T11:04:10;2.92;;;2.15;;
10667;SDS011;5382;42.136;24.796;2022-09-25T11:06:41;10.90;;;2.70;;
10667;SDS011;5382;42.136;24.796;2022-09-25T11:09:12;3.78;;;2.20;;
10667;SDS011;5382;42.136;24.796;2022-09-25T11:11:41;3.53;;;2.40;;
10667;SDS011;5382;42.136;24.796;2022-09-25T11:14:18;2.67;;;2.15;;
10667;SDS011;5382;42.136;24.796;2022-09-25T11:16:49;2.55;;;2.20;;
10667;SDS011;5382;42.136;24.796;2022-09-25T11:19:19;4.15;;;2.40;;
10667;SDS011;5382;42.136;24.796;2022-09-25T11:22:00;3.60;;;2.28;;
10667;SDS011;5382;42.136;24.796;2022-09-25T11:24:44;3.65;;;2.28;;
10667;SDS011;5382;42.136;24.796;2022-09-25T11:27:21;4.03;;;2.58;;
10667;SDS011;5382;42.136;24.796;2022-09-25T11:29:58;2.88;;;2.58;;
10667;SDS011;5382;42.136;24.796;2022-09-25T11:32:32;2.28;;;2.08;;
10667;SDS011;5382;42.136;24.796;2022-09-25T11:37:57;2.53;;;2.30;;
10667;SDS011;5382;42.136;24.796;2022-09-25T11:40:34;2.95;;;2.70;;
10667;SDS011;5382;42.136;24.796;2022-09-25T11:43:28;3.38;;;2.30;;
10667;SDS011;5382;42.136;24.796;2022-09-25T11:46:15;2.50;;;2.30;;
10667;SDS011;5382;42.136;24.796;2022-09-25T11:48:49;4.13;;;2.50;;
10667;SDS011;5382;42.136;24.796;2022-09-25T11:51:27;2.67;;;2.47;;
10667;SDS011;5382;42.136;24.796;2022-09-25T11:54:10;2.28;;;2.10;;
10667;SDS011;5382;42.136;24.796;2022-09-25T11:56:47;9.13;;;2.50;;
10667;SDS011;5382;42.136;24.796;2022-09-25T11:59:25;4.10;;;2.30;;
10667;SDS011;5382;42.136;24.796;2022-09-25T12:02:05;3.33;;;2.33;;
10667;SDS011;5382;42.136;24.796;2022-09-25T12:05:04;3.13;;;2.22;;
10667;SDS011;5382;42.136;24.796;2022-09-25T12:07:51;3.65;;;2.50;;
10667;SDS011;5382;42.136;24.796;2022-09-25T12:10:33;2.78;;;2.50;;
10667;SDS011;5382;42.136;24.796;2022-09-25T12:13:10;4.63;;;2.45;;
10667;SDS011;5382;42.136;24.796;2022-09-25T12:15:48;3.60;;;2.42;;
10667;SDS011;5382;42.136;24.796;2022-09-25T12:18:26;3.78;;;2.20;;
10667;SDS011;5382;42.136;24.796;2022-09-25T12:21:05;3.97;;;2.42;;
10667;SDS011;5382;42.136;24.796;2022-09-25T12:23:37;7.78;;;2.80;;
10667;SDS011;5382;42.136;24.796;2022-09-25T12:26:12;4.78;;;2.83;;
10667;SDS011;5382;42.136;24.796;2022-09-25T12:28:52;2.45;;;2.20;;
10667;SDS011;5382;42.136;24.796;2022-09-25T12:31:31;2.00;;;1.90;;
10667;SDS011;5382;42.136;24.796;2022-09-25T12:34:06;2.80;;;2.05;;
10667;SDS011;5382;42.136;24.796;2022-09-25T12:36:43;3.08;;;2.20;;
10667;SDS011;5382;42.136;24.796;2022-09-25T12:39:20;2.58;;;2.20;;
10667;SDS011;5382;42.136;24.796;2022-09-25T12:41:58;3.33;;;2.33;;
10667;SDS011;5382;42.136;24.796;2022-09-25T12:44:35;5.78;;;2.55;;
10667;SDS011;5382;42.136;24.796;2022-09-25T12:47:14;2.25;;;2.05;;
10667;SDS011;5382;42.136;24.796;2022-09-25T12:49:48;2.75;;;2.47;;
10667;SDS011;5382;42.136;24.796;2022-09-25T12:52:22;2.35;;;2.15;;
10667;SDS011;5382;42.136;24.796;2022-09-25T12:54:55;4.88;;;2.30;;
10667;SDS011;5382;42.136;24.796;2022-09-25T12:57:30;3.63;;;2.22;;
10667;SDS011;5382;42.136;24.796;2022-09-25T13:00:03;3.47;;;2.35;;
10667;SDS011;5382;42.136;24.796;2022-09-25T13:02:37;2.50;;;2.30;;
10667;SDS011;5382;42.136;24.796;2022-09-25T13:05:09;3.28;;;2.40;;
10667;SDS011;5382;42.136;24.796;2022-09-25T13:07:46;5.25;;;2.17;;
10667;SDS011;5382;42.136;24.796;2022-09-25T13:10:23;2.30;;;2.10;;
10667;SDS011;5382;42.136;24.796;2022-09-25T13:12:55;3.63;;;2.20;;
10667;SDS011;5382;42.136;24.796;2022-09-25T13:15:27;32.15;;;3.80;;
10667;SDS011;5382;42.136;24.796;2022-09-25T13:17:57;4.15;;;2.20;;
10667;SDS011;5382;42.136;24.796;2022-09-25T13:20:40;2.88;;;2.60;;
10667;SDS011;5382;42.136;24.796;2022-09-25T13:23:12;3.80;;;2.30;;
10667;SDS011;5382;42.136;24.796;2022-09-25T13:25:42;3.08;;;2.30;;
10667;SDS011;5382;42.136;24.796;2022-09-25T13:28:13;4.15;;;2.17;;
10667;SDS011;5382;42.136;24.796;2022-09-25T13:30:58;2.88;;;2.22;;
10667;SDS011;5382;42.136;24.796;2022-09-25T13:33:34;2.92;;;2.38;;
10667;SDS011;5382;42.136;24.796;2022-09-25T13:36:07;14.40;;;12.07;;
10667;SDS011;5382;42.136;24.796;2022-09-25T13:38:39;14.05;;;5.80;;
10667;SDS011;5382;42.136;24.796;2022-09-25T13:41:27;3.85;;;2.90;;
10667;SDS011;5382;42.136;24.796;2022-09-25T13:50:15;2.80;;;2.60;;
10667;SDS011;5382;42.136;24.796;2022-09-25T13:52:51;5.40;;;3.25;;
10667;SDS011;5382;42.136;24.796;2022-09-25T13:55:42;4.75;;;2.65;;
10667;SDS011;5382;42.136;24.796;2022-09-25T13:58:29;4.85;;;2.65;;
10667;SDS011;5382;42.136;24.796;2022-09-25T14:01:18;5.15;;;3.05;;
10667;SDS011;5382;42.136;24.796;2022-09-25T14:03:59;6.55;;;3.20;;
10667;SDS011;5382;42.136;24.796;2022-09-25T14:06:28;4.30;;;3.10;;
10667;SDS011;5382;42.136;24.796;2022-09-25T14:08:57;4.18;;;3.20;;
10667;SDS011;5382;42.136;24.796;2022-09-25T14:11:29;3.15;;;2.85;;
10667;SDS011;5382;42.136;24.796;2022-09-25T14:14:00;4.15;;;3.00;;
10667;SDS011;5382;42.136;24.796;2022-09-25T14:16:31;4.70;;;3.08;;
10667;SDS011;5382;42.136;24.796;2022-09-25T14:19:00;5.75;;;3.55;;
10667;SDS011;5382;42.136;24.796;2022-09-25T14:21:29;4.78;;;2.78;;
10667;SDS011;5382;42.136;24.796;2022-09-25T14:24:10;5.97;;;3.00;;
10667;SDS011;5382;42.136;24.796;2022-09-25T14:26:43;4.30;;;2.72;;
10667;SDS011;5382;42.136;24.796;2022-09-25T14:29:13;19.60;;;3.60;;
10667;SDS011;5382;42.136;24.796;2022-09-25T14:31:43;6.00;;;3.00;;
10667;SDS011;5382;42.136;24.796;2022-09-25T14:34:32;3.30;;;2.85;;
10667;SDS011;5382;42.136;24.796;2022-09-25T14:37:20;3.70;;;2.60;;
10667;SDS011;5382;42.136;24.796;2022-09-25T14:40:02;6.75;;;3.22;;
10667;SDS011;5382;42.136;24.796;2022-09-25T14:42:37;3.58;;;2.75;;
10667;SDS011;5382;42.136;24.796;2022-09-25T14:45:20;4.70;;;2.67;;
10667;SDS011;5382;42.136;24.796;2022-09-25T14:48:12;5.90;;;3.63;;
10667;SDS011;5382;42.136;24.796;2022-09-25T14:50:42;10.75;;;4.03;;
10667;SDS011;5382;42.136;24.796;2022-09-25T14:53:15;5.28;;;3.47;;
10667;SDS011;5382;42.136;24.796;2022-09-25T14:55:50;4.75;;;3.13;;
10667;SDS011;5382;42.136;24.796;2022-09-25T14:58:18;3.95;;;3.20;;
10667;SDS011;5382;42.136;24.796;2022-09-25T15:00:52;5.30;;;3.63;;
10667;SDS011;5382;42.136;24.796;2022-09-25T15:03:23;3.88;;;3.45;;
10667;SDS011;5382;42.136;24.796;2022-09-25T15:05:57;5.13;;;3.35;;
10667;SDS011;5382;42.136;24.796;2022-09-25T15:08:32;6.80;;;3.42;;
10667;SDS011;5382;42.136;24.796;2022-09-25T15:11:07;4.60;;;3.40;;
10667;SDS011;5382;42.136;24.796;2022-09-25T15:13:36;3.92;;;3.42;;
10667;SDS011;5382;42.136;24.796;2022-09-25T15:16:04;4.45;;;3.60;;
10667;SDS011;5382;42.136;24.796;2022-09-25T15:21:41;3.42;;;3.13;;
10667;SDS011;5382;42.136;24.796;2022-09-25T15:24:20;2.88;;;2.67;;
10667;SDS011;5382;42.136;24.796;2022-09-25T15:26:53;3.92;;;2.90;;
10667;SDS011;5382;42.136;24.796;2022-09-25T15:29:27;5.50;;;2.80;;
10667;SDS011;5382;42.136;24.796;2022-09-25T15:31:56;5.18;;;3.30;;